Time;durP1;ratioP1;P1;durP2;ratioP2;P2;SDS_P1;SDS_P2;PMS_P1;PMS_P2;Temp;Humidity;BMP_temperature;BMP_pressure;BME280_temperature;BME280_humidity;BME280_pressure;Samples;Min_cycle;Max_cycle;Signal;HPM_P1;HPM_P2
2022/07/09 00:01:50;;;;;;;17.02;13.65;;;;;;;15.89;nan;102681.78;5054832;28;20029;-54
2022/07/09 00:04:15;;;;;;;17.13;13.98;;;;;;;16.21;nan;102742.94;5055626;28;20460;-57
2022/07/09 00:06:41;;;;;;;18.85;15.10;;;;;;;16.12;nan;102724.56;5055233;28;20033;-55
2022/07/09 00:09:06;;;;;;;19.58;14.15;;;;;;;16.13;nan;102734.28;5054888;28;20048;-54
2022/07/09 00:11:31;;;;;;;18.85;14.93;;;;;;;15.93;nan;102730.38;5055079;28;20056;-57
2022/07/09 00:13:57;;;;;;;19.55;14.70;;;;;;;15.67;nan;102689.38;5054898;28;20060;-60
2022/07/09 00:16:23;;;;;;;19.80;14.57;;;;;;;15.96;nan;102727.66;5054696;28;20037;-55
2022/07/09 00:18:48;;;;;;;16.35;14.68;;;;;;;15.65;nan;102675.28;5054753;28;20044;-55
2022/07/09 00:21:13;;;;;;;18.67;15.07;;;;;;;15.59;nan;102671.91;5054990;28;20037;-58
2022/07/09 00:23:38;;;;;;;19.23;16.40;;;;;;;15.90;nan;102728.69;5054935;28;20048;-55
2022/07/09 00:26:04;;;;;;;19.35;17.17;;;;;;;15.91;nan;102727.75;5036991;28;20033;-56
2022/07/09 00:28:29;;;;;;;25.88;17.95;;;;;;;15.93;nan;102730.38;5054016;28;20147;-57
2022/07/09 00:30:55;;;;;;;26.63;19.88;;;;;;;15.92;nan;102732.16;5054468;28;20476;-58
2022/07/09 00:33:20;;;;;;;25.13;18.45;;;;;;;15.94;nan;102735.63;5053717;28;20067;-56
2022/07/09 00:35:45;;;;;;;25.25;19.88;;;;;;;15.83;nan;102710.25;5054443;28;20123;-59
2022/07/09 00:38:10;;;;;;;25.50;22.70;;;;;;;15.88;nan;102734.94;5054577;28;20033;-58
2022/07/09 00:40:36;;;;;;;29.73;23.00;;;;;;;15.57;nan;102681.69;5054497;28;20033;-58
2022/07/09 00:43:01;;;;;;;29.90;23.08;;;;;;;15.87;nan;102725.22;5054410;28;20033;-57
2022/07/09 00:45:27;;;;;;;26.67;22.52;;;;;;;15.66;nan;102689.44;5054406;28;20029;-53
2022/07/09 00:47:52;;;;;;;31.45;23.38;;;;;;;15.90;nan;102719.84;5053247;28;20530;-57
2022/07/09 00:50:18;;;;;;;34.53;22.73;;;;;;;15.90;nan;102733.13;5054473;28;20400;-56
2022/07/09 00:52:43;;;;;;;30.20;23.65;;;;;;;15.51;nan;102657.94;5052983;28;20041;-58
2022/07/09 00:55:10;;;;;;;35.08;25.45;;;;;;;15.87;nan;102726.09;5054245;28;20029;-60
2022/07/09 00:57:35;;;;;;;32.80;24.83;;;;;;;15.81;nan;102694.38;5052951;28;20566;-58
2022/07/09 01:00:01;;;;;;;30.52;23.58;;;;;;;15.86;nan;102716.38;5052972;28;20113;-58
2022/07/09 01:02:26;;;;;;;36.67;25.90;;;;;;;15.88;nan;102711.03;5053803;28;20400;-56
2022/07/09 01:04:52;;;;;;;36.72;26.50;;;;;;;15.51;nan;102645.56;5052822;28;20174;-59
2022/07/09 01:07:17;;;;;;;30.15;24.42;;;;;;;15.49;nan;102641.19;5054087;28;20033;-56
2022/07/09 01:09:42;;;;;;;34.67;27.33;;;;;;;15.55;nan;102649.88;5053225;28;20132;-60
2022/07/09 01:12:08;;;;;;;35.55;28.05;;;;;;;15.86;nan;102718.16;5053636;28;20066;-57
2022/07/09 01:14:33;;;;;;;32.28;26.38;;;;;;;15.67;nan;102675.25;5052363;28;20041;-58
2022/07/09 01:17:00;;;;;;;36.45;24.75;;;;;;;15.42;nan;102642.22;5053775;28;20370;-57
2022/07/09 01:19:30;;;;;;;33.63;25.88;;;;;;;15.71;nan;102699.03;5052634;28;20037;-57
2022/07/09 01:21:55;;;;;;;32.05;26.42;;;;;;;15.70;nan;102680.50;5053754;28;20369;-57
2022/07/09 01:24:22;;;;;;;32.08;25.95;;;;;;;15.77;nan;102698.88;5053753;28;20051;-53
2022/07/09 01:26:48;;;;;;;33.35;25.83;;;;;;;15.54;nan;102636.63;5053470;28;20033;-58
2022/07/09 01:29:14;;;;;;;32.05;24.92;;;;;;;15.99;nan;102698.34;5051286;28;20103;-57
2022/07/09 01:31:39;;;;;;;29.52;24.45;;;;;;;15.79;nan;102647.53;5051738;28;20090;-57
2022/07/09 01:34:04;;;;;;;30.15;23.48;;;;;;;16.15;nan;102691.72;5051382;28;20404;-56
2022/07/09 01:36:29;;;;;;;32.22;23.98;;;;;;;16.21;nan;102689.78;5052980;28;20110;-59
2022/07/09 01:38:55;;;;;;;27.00;21.95;;;;;;;16.23;nan;102689.72;5053009;28;20094;-57
2022/07/09 01:41:20;;;;;;;25.67;20.67;;;;;;;16.19;nan;102686.31;5053246;28;20037;-56
2022/07/09 01:43:45;;;;;;;26.08;20.73;;;;;;;16.14;nan;102690.84;5052800;28;20364;-57
2022/07/09 01:46:11;;;;;;;26.15;20.67;;;;;;;15.98;nan;102670.91;5052777;28;20542;-55
2022/07/09 01:48:36;;;;;;;27.48;21.10;;;;;;;15.98;nan;102692.16;5052897;28;20040;-58
2022/07/09 01:51:02;;;;;;;28.45;20.08;;;;;;;15.93;nan;102679.91;5052718;28;20041;-55
2022/07/09 01:53:27;;;;;;;22.60;17.88;;;;;;;15.88;nan;102674.72;5052610;28;20064;-54
2022/07/09 01:55:53;;;;;;;22.02;18.58;;;;;;;15.88;nan;102672.06;5052890;28;20043;-56
2022/07/09 01:58:18;;;;;;;23.30;19.25;;;;;;;15.83;nan;102673.97;5052535;28;20033;-54
2022/07/09 02:00:44;;;;;;;23.92;19.27;;;;;;;15.79;nan;102666.97;5052342;28;20418;-56
2022/07/09 02:03:09;;;;;;;21.50;17.40;;;;;;;15.77;nan;102676.75;5050770;28;20484;-57
2022/07/09 02:05:35;;;;;;;21.05;18.13;;;;;;;15.71;nan;102672.47;5052414;28;20037;-56
2022/07/09 02:08:00;;;;;;;24.05;18.33;;;;;;;15.66;nan;102669.06;5052444;28;20056;-58
2022/07/09 02:10:25;;;;;;;20.65;17.05;;;;;;;15.64;nan;102662.06;5051338;28;20545;-60
2022/07/09 02:12:51;;;;;;;21.50;17.55;;;;;;;15.62;nan;102671.81;5052365;28;20061;-57
2022/07/09 02:15:16;;;;;;;19.77;17.58;;;;;;;15.59;nan;102666.59;5050808;28;20133;-54
2022/07/09 02:17:41;;;;;;;25.52;17.42;;;;;;;15.57;nan;102679.03;5051195;28;20033;-56
2022/07/09 02:20:08;;;;;;;20.10;16.98;;;;;;;15.55;nan;102671.13;5051919;28;20094;-57
2022/07/09 02:22:34;;;;;;;22.90;17.00;;;;;;;15.43;nan;102658.13;5051292;28;20037;-56
2022/07/09 02:24:59;;;;;;;19.45;16.17;;;;;;;15.32;nan;102633.63;5051787;28;20430;-55
2022/07/09 02:27:25;;;;;;;19.08;15.63;;;;;;;15.48;nan;102663.31;5051765;28;20098;-60
2022/07/09 02:29:50;;;;;;;22.05;17.20;;;;;;;15.18;nan;102604.72;5050641;28;20051;-55
2022/07/09 02:32:15;;;;;;;27.40;18.27;;;;;;;15.51;nan;102647.34;5050531;28;20428;-59
2022/07/09 02:34:41;;;;;;;22.98;16.35;;;;;;;15.29;nan;102601.84;5050429;28;20169;-58
2022/07/09 02:37:06;;;;;;;24.77;17.60;;;;;;;15.62;nan;102651.47;5052025;28;20051;-54
2022/07/09 02:39:32;;;;;;;20.13;15.63;;;;;;;15.68;nan;102653.09;5050739;28;20032;-56
2022/07/09 02:41:57;;;;;;;20.92;15.60;;;;;;;15.30;nan;102585.00;5051814;28;20036;-57
2022/07/09 02:44:22;;;;;;;22.17;16.27;;;;;;;15.28;nan;102593.91;5051429;28;20049;-55
2022/07/09 02:46:48;;;;;;;19.92;15.75;;;;;;;15.62;nan;102654.13;5050804;28;20137;-56
2022/07/09 02:49:13;;;;;;;20.75;16.50;;;;;;;15.28;nan;102589.47;5050553;28;20108;-56
2022/07/09 02:51:39;;;;;;;22.27;15.80;;;;;;;15.35;nan;102587.56;5051990;28;20477;-58
2022/07/09 02:54:05;;;;;;;21.05;15.20;;;;;;;15.47;nan;102603.22;5051845;28;20079;-60
2022/07/09 02:56:30;;;;;;;21.38;15.60;;;;;;;15.86;nan;102651.75;5050386;28;20047;-59
2022/07/09 02:58:56;;;;;;;18.67;14.60;;;;;;;15.88;nan;102636.69;5051665;28;20108;-58
2022/07/09 03:01:21;;;;;;;15.55;13.80;;;;;;;16.00;nan;102650.50;5050262;28;20033;-56
2022/07/09 03:03:46;;;;;;;15.90;13.88;;;;;;;15.72;nan;102586.63;5051762;28;20051;-58
2022/07/09 03:06:12;;;;;;;17.13;13.40;;;;;;;16.13;nan;102648.41;5051739;28;20064;-58
2022/07/09 03:08:38;;;;;;;14.65;12.10;;;;;;;15.87;nan;102589.78;5051709;28;20479;-57
2022/07/09 03:11:06;;;;;;;16.17;11.63;;;;;;;15.81;nan;102568.69;5050419;28;20071;-60
2022/07/09 03:13:32;;;;;;;14.88;11.02;;;;;;;16.12;nan;102612.97;5051444;28;20044;-58
2022/07/09 03:15:57;;;;;;;13.40;10.50;;;;;;;15.90;nan;102560.50;5051261;28;20041;-58
2022/07/09 03:18:23;;;;;;;14.23;9.80;;;;;;;16.00;nan;102569.94;5051698;28;20101;-61
2022/07/09 03:20:48;;;;;;;10.73;8.95;;;;;;;15.99;nan;102566.44;5051674;28;20037;-57
2022/07/09 03:23:13;;;;;;;10.82;8.80;;;;;;;16.42;nan;102616.56;5051565;28;20029;-60
2022/07/09 03:25:39;;;;;;;10.23;7.65;;;;;;;16.45;nan;102618.28;5050776;28;20033;-57
2022/07/09 03:28:05;;;;;;;10.98;8.88;;;;;;;16.46;nan;102620.88;5051408;28;20052;-58
2022/07/09 03:30:30;;;;;;;8.95;7.15;;;;;;;16.47;nan;102625.28;5050184;28;20427;-56
2022/07/09 03:32:56;;;;;;;12.30;8.23;;;;;;;16.45;nan;102618.28;5053159;28;20091;-57
2022/07/09 03:35:21;;;;;;;8.20;7.22;;;;;;;16.39;nan;102599.84;5055522;28;20039;-59
2022/07/09 03:37:46;;;;;;;11.65;8.38;;;;;;;16.55;nan;102619.78;5037506;28;20078;-56
2022/07/09 03:40:12;;;;;;;12.07;7.53;;;;;;;16.27;nan;102562.06;5055154;28;20098;-61
2022/07/09 03:42:37;;;;;;;8.43;7.35;;;;;;;16.54;nan;102605.63;5053923;28;20507;-59
2022/07/09 03:45:03;;;;;;;8.40;7.55;;;;;;;16.28;nan;102561.16;5053689;28;20056;-56
2022/07/09 03:47:28;;;;;;;9.73;7.03;;;;;;;16.32;nan;102562.81;5054824;28;20037;-57
2022/07/09 03:49:53;;;;;;;8.57;7.60;;;;;;;16.31;nan;102561.06;5054976;28;20037;-58
2022/07/09 03:52:19;;;;;;;9.23;7.38;;;;;;;16.38;nan;102574.16;5054845;28;20037;-55
2022/07/09 03:54:44;;;;;;;8.50;7.45;;;;;;;16.67;nan;102619.41;5054915;28;20041;-57
2022/07/09 03:57:10;;;;;;;8.00;7.30;;;;;;;16.61;nan;102604.50;5037066;28;20029;-58
2022/07/09 03:59:35;;;;;;;9.13;8.23;;;;;;;16.64;nan;102603.53;5053363;28;20025;-57
2022/07/09 04:02:01;;;;;;;9.82;8.32;;;;;;;16.71;nan;102613.09;5036657;28;20035;-57
2022/07/09 04:04:26;;;;;;;14.07;8.50;;;;;;;16.78;nan;102622.66;5054836;28;20120;-59
2022/07/09 04:06:51;;;;;;;9.82;8.15;;;;;;;16.22;nan;102526.81;5053382;28;20483;-55
2022/07/09 04:09:17;;;;;;;11.77;8.85;;;;;;;16.85;nan;102635.69;5054639;28;20040;-56
2022/07/09 04:11:42;;;;;;;10.65;7.72;;;;;;;16.89;nan;102628.50;5054413;28;20048;-59
2022/07/09 04:14:07;;;;;;;11.02;8.20;;;;;;;16.89;nan;102620.53;5054459;28;20513;-56
2022/07/09 04:16:33;;;;;;;12.13;9.75;;;;;;;16.83;nan;102599.44;5054046;28;20048;-56
2022/07/09 04:18:59;;;;;;;11.00;9.90;;;;;;;16.85;nan;102614.44;5054433;28;20119;-55
2022/07/09 04:21:24;;;;;;;12.10;10.82;;;;;;;16.61;nan;102561.09;5053236;28;20116;-57
2022/07/09 04:23:49;;;;;;;12.77;10.95;;;;;;;16.88;nan;102626.75;5054374;28;20136;-58
2022/07/09 04:26:15;;;;;;;12.10;10.88;;;;;;;16.82;nan;102614.50;5052729;28;20136;-59
2022/07/09 04:28:41;;;;;;;12.52;11.23;;;;;;;16.83;nan;102632.22;5052761;28;20053;-58
2022/07/09 04:31:06;;;;;;;13.23;10.50;;;;;;;16.30;nan;102554.00;5054462;28;20439;-56
2022/07/09 04:33:31;;;;;;;12.35;11.05;;;;;;;16.38;nan;102574.16;5054119;28;20175;-58
2022/07/09 04:35:57;;;;;;;11.30;10.15;;;;;;;16.63;nan;102628.41;5052781;28;20037;-56
2022/07/09 04:38:23;;;;;;;13.38;11.68;;;;;;;16.32;nan;102580.53;5053872;28;20403;-57
2022/07/09 04:40:48;;;;;;;12.20;10.73;;;;;;;16.45;nan;102604.97;5053722;28;20134;-56
2022/07/09 04:43:14;;;;;;;13.95;10.68;;;;;;;16.52;nan;102614.53;5053340;28;20040;-57
2022/07/09 04:45:39;;;;;;;12.32;10.52;;;;;;;16.52;nan;102611.88;5053003;28;20399;-57
2022/07/09 04:48:04;;;;;;;12.73;10.38;;;;;;;16.43;nan;102577.59;5053822;28;20039;-57
2022/07/09 04:50:30;;;;;;;13.43;10.77;;;;;;;16.69;nan;102618.47;5053661;28;20033;-58
2022/07/09 04:52:55;;;;;;;12.43;11.15;;;;;;;16.73;nan;102608.59;5053621;28;20389;-59
2022/07/09 04:55:21;;;;;;;12.15;10.98;;;;;;;16.78;nan;102614.66;5053535;28;20463;-57
2022/07/09 04:57:47;;;;;;;12.15;10.93;;;;;;;16.48;nan;102552.59;5053360;28;20527;-59
2022/07/09 05:00:15;;;;;;;12.98;11.60;;;;;;;16.83;nan;102602.09;5052306;28;20028;-57
2022/07/09 05:02:41;;;;;;;12.27;11.07;;;;;;;16.85;nan;102598.47;5053308;28;20132;-54
2022/07/09 05:05:07;;;;;;;12.18;11.18;;;;;;;16.92;nan;102598.28;5053126;28;20124;-60
2022/07/09 05:07:34;;;;;;;12.57;11.27;;;;;;;16.97;nan;102602.53;5054249;28;20262;-58
2022/07/09 05:10:02;;;;;;;12.98;11.57;;;;;;;16.96;nan;102584.81;5053255;28;20062;-59
2022/07/09 05:12:29;;;;;;;16.85;13.00;;;;;;;17.08;nan;102594.22;5054964;28;20036;-53
2022/07/09 05:14:56;;;;;;;14.40;12.98;;;;;;;17.03;nan;102589.03;5052680;28;20036;-57
2022/07/09 05:17:21;;;;;;;16.35;13.80;;;;;;;17.14;nan;102594.88;5052949;28;20470;-58
2022/07/09 05:19:47;;;;;;;16.63;14.30;;;;;;;17.18;nan;102590.34;5052918;28;20090;-61
2022/07/09 05:22:12;;;;;;;17.08;15.48;;;;;;;17.02;nan;102555.38;5053026;28;20040;-60
2022/07/09 05:24:37;;;;;;;18.02;16.00;;;;;;;17.02;nan;102534.09;5053199;28;20126;-58
2022/07/09 05:27:03;;;;;;;18.15;16.42;;;;;;;17.20;nan;102568.09;5052875;28;20055;-60
2022/07/09 05:29:29;;;;;;;21.35;17.13;;;;;;;17.39;nan;102585.22;5052981;28;20029;-57
2022/07/09 05:31:54;;;;;;;19.33;17.33;;;;;;;17.42;nan;102576.25;5051793;28;20110;-56
2022/07/09 05:34:20;;;;;;;19.55;17.70;;;;;;;17.60;nan;102586.28;5052976;28;20043;-56
2022/07/09 05:36:45;;;;;;;20.35;18.45;;;;;;;17.33;nan;102532.19;5052499;28;20068;-60
2022/07/09 05:39:10;;;;;;;21.23;18.90;;;;;;;17.70;nan;102590.41;5053036;28;20388;-56
2022/07/09 05:41:36;;;;;;;21.35;19.25;;;;;;;17.79;nan;102603.41;5052595;28;20422;-56
2022/07/09 05:44:04;;;;;;;21.63;19.40;;;;;;;17.71;nan;102596.59;5052654;28;20033;-56
2022/07/09 05:46:29;;;;;;;21.25;19.05;;;;;;;17.79;nan;102616.72;5052441;28;20120;-59
2022/07/09 05:48:55;;;;;;;23.48;20.55;;;;;;;17.81;nan;102629.97;5052447;28;20136;-56
2022/07/09 05:51:20;;;;;;;20.55;18.65;;;;;;;17.52;nan;102568.81;5052163;28;20071;-57
2022/07/09 05:53:46;;;;;;;21.88;19.55;;;;;;;17.97;nan;102617.88;5051712;28;20372;-58
2022/07/09 05:56:11;;;;;;;20.55;18.45;;;;;;;18.15;nan;102614.56;5052006;28;20127;-56
2022/07/09 05:58:38;;;;;;;16.88;14.82;;;;;;;18.41;nan;102605.63;5051501;28;20488;-59
2022/07/09 06:01:05;;;;;;;17.15;14.38;;;;;;;18.61;nan;102603.09;5051706;28;20071;-56
2022/07/09 06:03:30;;;;;;;16.23;14.07;;;;;;;18.42;nan;102567.34;5054208;28;20059;-56
2022/07/09 06:05:56;;;;;;;14.63;13.10;;;;;;;18.74;nan;102622.19;5054710;28;20028;-58
2022/07/09 06:08:21;;;;;;;14.23;12.85;;;;;;;18.65;nan;102630.53;5052826;28;20037;-57
2022/07/09 06:10:47;;;;;;;15.15;11.20;;;;;;;18.58;nan;102623.69;5052674;28;20029;-58
2022/07/09 06:13:13;;;;;;;11.43;10.23;;;;;;;18.68;nan;102627.75;5052668;28;20029;-55
2022/07/09 06:15:39;;;;;;;10.80;9.70;;;;;;;18.33;nan;102565.03;5053142;28;20029;-60
2022/07/09 06:18:05;;;;;;;10.77;8.05;;;;;;;18.73;nan;102618.66;5054296;28;20140;-57
2022/07/09 06:20:54;;;;;;;8.60;7.03;;;;;;;18.73;nan;102626.66;5036806;28;20044;-57
2022/07/09 06:23:21;;;;;;;9.02;5.97;;;;;;;18.84;nan;102618.22;5047572;28;20049;-58
2022/07/09 06:25:46;;;;;;;6.53;5.38;;;;;;;18.85;nan;102622.63;5053717;28;20029;-60
2022/07/09 06:28:16;;;;;;;7.18;5.60;;;;;;;18.97;nan;102632.84;5051946;28;20059;-60
2022/07/09 06:30:41;;;;;;;5.18;4.40;;;;;;;18.99;nan;102620.31;5057354;28;20044;-59
2022/07/09 06:33:06;;;;;;;5.53;3.20;;;;;;;18.80;nan;102584.56;5052923;28;20028;-59
2022/07/09 06:35:32;;;;;;;5.10;3.47;;;;;;;19.02;nan;102641.53;5051513;28;20056;-55
2022/07/09 06:37:57;;;;;;;4.22;3.00;;;;;;;18.59;nan;102596.09;5051511;28;20059;-57
2022/07/09 06:40:23;;;;;;;3.53;2.60;;;;;;;18.80;nan;102652.16;5051474;28;20041;-59
2022/07/09 06:42:48;;;;;;;6.18;3.15;;;;;;;18.50;nan;102597.31;5033892;28;20511;-58
2022/07/09 06:45:14;;;;;;;4.15;2.45;;;;;;;18.58;nan;102594.34;5051947;28;20047;-58
2022/07/09 06:47:40;;;;;;;4.00;2.78;;;;;;;18.94;nan;102659.66;5051517;28;20444;-58
2022/07/09 06:50:05;;;;;;;2.53;2.13;;;;;;;19.03;nan;102675.31;5049333;28;20120;-61
2022/07/09 06:52:30;;;;;;;3.00;1.88;;;;;;;18.74;nan;102604.34;5041975;28;20389;-59
2022/07/09 06:54:56;;;;;;;4.75;2.03;;;;;;;19.19;nan;102648.88;5047977;28;20032;-60
2022/07/09 06:57:21;;;;;;;2.85;1.80;;;;;;;19.26;nan;102637.91;5036028;28;20037;-62
2022/07/09 06:59:46;;;;;;;3.83;1.88;;;;;;;19.53;nan;102678.66;5047898;28;20041;-57
2022/07/09 07:02:12;;;;;;;4.07;1.35;;;;;;;19.50;nan;102673.44;5034551;28;20076;-60
2022/07/09 07:04:38;;;;;;;1.65;1.13;;;;;;;19.50;nan;102671.63;5032600;28;20111;-58
2022/07/09 07:07:04;;;;;;;1.80;1.35;;;;;;;19.29;nan;102648.47;5043629;28;20036;-58
2022/07/09 07:09:29;;;;;;;1.15;1.02;;;;;;;19.50;nan;102674.31;5039226;28;20057;-60
2022/07/09 07:11:55;;;;;;;2.63;1.20;;;;;;;19.18;nan;102642.66;5053951;28;20071;-59
2022/07/09 07:14:20;;;;;;;4.38;1.17;;;;;;;19.57;nan;102686.50;5053781;28;20100;-57
2022/07/09 07:16:45;;;;;;;1.50;1.30;;;;;;;19.52;nan;102690.28;5054822;28;20048;-58
2022/07/09 07:19:11;;;;;;;1.38;1.10;;;;;;;19.66;nan;102701.28;5053917;28;20445;-57
2022/07/09 07:21:37;;;;;;;3.80;1.52;;;;;;;19.74;nan;102707.16;5055480;28;20059;-59
2022/07/09 07:24:04;;;;;;;1.52;1.30;;;;;;;19.51;nan;102649.34;5054343;28;20029;-58
2022/07/09 07:26:29;;;;;;;1.73;1.23;;;;;;;19.98;nan;102695.47;5047281;28;20453;-59
2022/07/09 07:28:54;;;;;;;2.97;1.20;;;;;;;19.89;nan;102693.19;5035173;28;20052;-59
2022/07/09 07:31:20;;;;;;;2.58;1.35;;;;;;;19.86;nan;102700.44;5036065;28;20080;-56
2022/07/09 07:33:45;;;;;;;3.65;1.40;;;;;;;19.45;nan;102672.75;5053339;28;20038;-58
2022/07/09 07:36:10;;;;;;;3.55;1.38;;;;;;;19.49;nan;102701.97;5033880;28;20041;-56
2022/07/09 07:38:36;;;;;;;4.43;1.33;;;;;;;19.24;nan;102710.94;5045301;28;20201;-58
2022/07/09 07:41:01;;;;;;;3.17;1.80;;;;;;;19.06;nan;102692.03;5053660;28;20083;-59
2022/07/09 07:43:26;;;;;;;6.20;1.45;;;;;;;19.17;nan;102699.66;5037173;28;20037;-55
2022/07/09 07:45:52;;;;;;;2.40;1.45;;;;;;;19.26;nan;102698.44;5034991;28;20033;-60
2022/07/09 07:48:17;;;;;;;10.60;1.88;;;;;;;19.28;nan;102696.56;5051056;28;20446;-58
2022/07/09 07:50:43;;;;;;;4.18;1.67;;;;;;;19.16;nan;102679.22;5054419;28;20476;-58
2022/07/09 07:53:08;;;;;;;4.65;1.70;;;;;;;19.32;nan;102711.53;5050200;28;20041;-60
2022/07/09 07:55:33;;;;;;;4.95;1.70;;;;;;;19.05;nan;102646.75;5033480;28;20128;-59
2022/07/09 07:57:59;;;;;;;3.58;1.60;;;;;;;19.33;nan;102711.47;5035709;28;20075;-63
2022/07/09 08:00:24;;;;;;;5.35;1.50;;;;;;;19.31;nan;102723.16;5037127;28;20259;-65
2022/07/09 08:02:50;;;;;;;3.38;1.38;;;;;;;19.30;nan;102711.59;5051645;28;20069;-60
2022/07/09 08:05:15;;;;;;;3.60;1.40;;;;;;;19.38;nan;102709.47;5023183;28;20515;-65
2022/07/09 08:07:40;;;;;;;5.40;1.85;;;;;;;19.44;nan;102706.59;5049677;28;20131;-64
2022/07/09 08:10:06;;;;;;;4.43;1.60;;;;;;;19.00;nan;102656.75;5035295;28;20053;-61
2022/07/09 08:12:31;;;;;;;3.75;1.40;;;;;;;19.24;nan;102669.09;5052209;28;20041;-62
2022/07/09 08:14:57;;;;;;;4.53;1.70;;;;;;;19.87;nan;102705.75;5054212;28;20037;-65
2022/07/09 08:17:22;;;;;;;6.60;1.30;;;;;;;19.95;nan;102713.44;5054103;28;20033;-62
2022/07/09 08:19:47;;;;;;;3.67;1.20;;;;;;;20.03;nan;102712.16;5052578;28;20032;-65
2022/07/09 08:22:13;;;;;;;3.03;1.33;;;;;;;20.16;nan;102729.44;5054192;28;20047;-61
2022/07/09 08:24:38;;;;;;;7.72;1.83;;;;;;;20.33;nan;102666.38;5053957;28;20036;-62
2022/07/09 08:27:03;;;;;;;6.57;3.05;;;;;;;20.80;nan;102667.75;5053905;28;20039;-66
2022/07/09 08:29:29;;;;;;;6.40;4.22;;;;;;;21.42;nan;102731.81;5053644;28;20400;-62
2022/07/09 08:31:56;;;;;;;2.80;1.23;;;;;;;21.77;nan;102735.44;5053708;28;20566;-65
2022/07/09 08:34:21;;;;;;;3.70;1.25;;;;;;;21.47;nan;102707.44;5053723;28;20041;-64
2022/07/09 08:36:47;;;;;;;4.95;1.10;;;;;;;21.02;nan;102689.03;5053836;28;20056;-63
2022/07/09 08:39:12;;;;;;;4.55;1.20;;;;;;;22.06;nan;102740.25;5053756;28;20033;-62
2022/07/09 08:41:38;;;;;;;5.05;1.23;;;;;;;22.27;nan;102741.81;5052649;28;20492;-65
2022/07/09 08:44:04;;;;;;;3.70;1.35;;;;;;;22.10;nan;102744.50;5053463;28;20063;-66
2022/07/09 08:46:31;;;;;;;3.08;1.30;;;;;;;21.55;nan;102675.78;5053419;28;20044;-64
2022/07/09 08:48:58;;;;;;;2.75;1.00;;;;;;;22.11;nan;102716.75;5053366;28;20418;-62
2022/07/09 08:51:23;;;;;;;4.35;1.35;;;;;;;22.70;nan;102735.13;5052159;28;20041;-63
2022/07/09 08:53:48;;;;;;;3.17;1.55;;;;;;;22.64;nan;102746.19;5051953;28;20039;-63
2022/07/09 08:56:14;;;;;;;2.80;1.23;;;;;;;22.24;nan;102728.56;5052005;28;20430;-63
2022/07/09 08:58:39;;;;;;;4.53;1.10;;;;;;;22.07;nan;102733.94;5048653;28;20087;-62
2022/07/09 09:01:06;;;;;;;2.53;0.90;;;;;;;22.07;nan;102730.38;5041775;28;20037;-65
2022/07/09 09:03:32;;;;;;;5.45;1.20;;;;;;;21.92;nan;102741.91;5053758;28;20052;-62
2022/07/09 09:06:03;;;;;;;2.90;1.10;;;;;;;21.85;nan;102738.63;5046278;28;20025;-66
2022/07/09 09:08:33;;;;;;;3.90;1.10;;;;;;;21.49;nan;102724.31;5042577;28;20035;-65
2022/07/09 09:10:58;;;;;;;2.10;1.02;;;;;;;21.52;nan;102714.31;5053239;28;20037;-63
2022/07/09 09:13:24;;;;;;;3.05;0.95;;;;;;;22.14;nan;102737.19;5050701;28;20079;-63
2022/07/09 09:15:49;;;;;;;3.50;1.35;;;;;;;22.33;nan;102732.59;5050742;28;20037;-64
2022/07/09 09:18:14;;;;;;;2.10;1.20;;;;;;;22.89;nan;102687.53;5052645;28;20578;-64
2022/07/09 09:20:44;;;;;;;1.52;0.90;;;;;;;23.69;nan;102679.44;5051787;28;20095;-64
2022/07/09 09:23:16;;;;;;;1.40;0.80;;;;;;;24.33;nan;102756.34;5052675;28;20041;-62
2022/07/09 09:25:41;;;;;;;1.25;0.95;;;;;;;23.91;nan;102658.38;5052725;28;20071;-63
2022/07/09 09:28:07;;;;;;;1.48;0.60;;;;;;;24.57;nan;102762.97;5052928;28;20073;-62
2022/07/09 09:30:32;;;;;;;2.53;0.80;;;;;;;24.55;nan;102772.94;5050652;28;20048;-66
2022/07/09 09:33:02;;;;;;;2.03;0.75;;;;;;;24.30;nan;102767.31;5052292;28;20045;-68
2022/07/09 09:35:30;;;;;;;1.80;0.60;;;;;;;24.36;nan;102792.03;5051316;28;20098;-64
2022/07/09 09:37:56;;;;;;;0.88;0.60;;;;;;;24.11;nan;102793.56;5034449;28;20318;-62
2022/07/09 09:40:22;;;;;;;3.95;0.80;;;;;;;23.65;nan;102785.41;5052514;28;20041;-61
2022/07/09 09:42:48;;;;;;;0.85;0.52;;;;;;;23.34;nan;102796.09;5052403;28;20067;-62
2022/07/09 09:45:14;;;;;;;0.85;0.50;;;;;;;23.30;nan;102741.66;5052913;28;20086;-64
2022/07/09 09:47:45;;;;;;;1.00;0.80;;;;;;;23.70;nan;102793.22;5034372;28;20032;-61
2022/07/09 09:50:17;;;;;;;0.90;0.55;;;;;;;23.47;nan;102732.69;5048638;28;20044;-61
2022/07/09 09:52:45;;;;;;;0.45;0.45;;;;;;;24.08;nan;102776.59;5050636;28;20122;-62
2022/07/09 09:55:13;;;;;;;1.83;0.60;;;;;;;24.27;nan;102751.34;5052251;28;20037;-64
2022/07/09 09:57:39;;;;;;;0.77;0.45;;;;;;;24.41;nan;102746.84;5052088;28;20171;-64
2022/07/09 10:00:06;;;;;;;0.40;0.40;;;;;;;23.63;nan;102790.00;5050904;28;20033;-64
2022/07/09 10:02:32;;;;;;;0.70;0.60;;;;;;;22.78;nan;102786.59;5050536;28;20039;-63
2022/07/09 10:04:58;;;;;;;0.98;0.50;;;;;;;22.63;nan;102741.72;5050515;28;20045;-65
2022/07/09 10:07:23;;;;;;;1.05;0.43;;;;;;;23.65;nan;102785.41;5033644;28;20127;-67
2022/07/09 10:09:53;;;;;;;1.75;0.40;;;;;;;23.02;nan;102756.69;5052383;28;20045;-66
2022/07/09 10:12:26;;;;;;;1.83;0.63;;;;;;;23.16;nan;102787.22;5017447;28;20055;-65
2022/07/09 10:14:52;;;;;;;0.55;0.55;;;;;;;23.72;nan;102786.81;5051920;28;20029;-66
2022/07/09 10:17:17;;;;;;;0.65;0.63;;;;;;;23.38;nan;102749.31;5051737;28;20051;-66
2022/07/09 10:19:54;;;;;;;0.55;0.40;;;;;;;23.04;nan;102806.69;5051678;28;20025;-65
2022/07/09 10:22:20;;;;;;;0.68;0.68;;;;;;;23.18;nan;102808.63;5051524;28;20108;-67
2022/07/09 10:24:46;;;;;;;1.15;0.68;;;;;;;23.97;nan;102807.78;5051451;28;20112;-64
2022/07/09 10:27:12;;;;;;;2.88;0.88;;;;;;;24.29;nan;102811.31;5049828;28;20115;-66
2022/07/09 10:29:52;;;;;;;1.67;0.77;;;;;;;24.34;nan;102798.47;5050566;28;20029;-67
2022/07/09 10:32:31;;;;;;;2.30;0.75;;;;;;;23.95;nan;102796.25;5050066;28;20440;-60
2022/07/09 10:34:57;;;;;;;1.52;1.10;;;;;;;23.86;nan;102805.72;5050117;28;20532;-66
2022/07/09 10:37:38;;;;;;;2.60;1.00;;;;;;;23.01;nan;102804.16;5033298;28;20110;-64
2022/07/09 10:40:15;;;;;;;4.18;1.08;;;;;;;21.95;nan;102739.06;5049636;28;20037;-64
2022/07/09 10:42:42;;;;;;;1.92;0.75;;;;;;;21.83;nan;102776.19;5049920;28;20113;-65
2022/07/09 10:45:23;;;;;;;2.25;1.05;;;;;;;21.78;nan;102769.34;5049631;28;20033;-64
2022/07/09 10:47:56;;;;;;;21.23;4.50;;;;;;;22.30;nan;102767.63;5051445;28;20112;-61
2022/07/09 10:50:22;;;;;;;1.92;0.80;;;;;;;23.50;nan;102779.06;5050158;28;20025;-65
2022/07/09 10:52:50;;;;;;;3.10;0.93;;;;;;;24.54;nan;102787.38;5049900;28;20498;-63
2022/07/09 10:55:17;;;;;;;3.25;0.90;;;;;;;24.64;nan;102788.53;5050193;28;20025;-65
2022/07/09 10:57:43;;;;;;;1.85;0.93;;;;;;;24.23;nan;102799.09;5050227;28;20027;-62
2022/07/09 11:00:10;;;;;;;2.55;1.00;;;;;;;23.60;nan;102792.88;5050089;28;20116;-66
2022/07/09 11:02:35;;;;;;;2.10;1.17;;;;;;;22.83;nan;102768.44;5051009;28;20052;-63
2022/07/09 11:05:00;;;;;;;1.38;0.90;;;;;;;22.65;nan;102806.97;5050900;28;20429;-66
2022/07/09 11:07:27;;;;;;;2.63;0.93;;;;;;;23.16;nan;102802.47;5051524;28;20043;-65
2022/07/09 11:09:52;;;;;;;7.07;1.30;;;;;;;23.00;nan;102764.81;5050655;28;20036;-65
2022/07/09 11:12:19;;;;;;;3.08;1.10;;;;;;;23.01;nan;102814.03;5050550;28;20030;-63
2022/07/09 11:14:45;;;;;;;3.75;1.20;;;;;;;23.45;nan;102783.84;5050493;28;20043;-61
2022/07/09 11:17:15;;;;;;;2.45;1.00;;;;;;;22.68;nan;102760.34;5050936;28;20029;-62
2022/07/09 11:19:41;;;;;;;3.15;1.30;;;;;;;22.93;nan;102825.22;5051448;28;20033;-66
2022/07/09 11:22:06;;;;;;;2.67;1.05;;;;;;;22.91;nan;102813.69;5017222;28;20044;-63
2022/07/09 11:24:32;;;;;;;3.28;1.48;;;;;;;23.27;nan;102814.38;5033306;28;20028;-63
2022/07/09 11:27:05;;;;;;;4.25;1.10;;;;;;;23.82;nan;102817.59;5049495;28;20598;-62
2022/07/09 11:29:30;;;;;;;2.72;1.25;;;;;;;24.06;nan;102780.34;5049842;28;20107;-57